KMGE/MGE METAR and TAF weather

Enter ICAO airport designator
Station Type Date Time Source
KMGE METAR 2021/09/23 17:56 UTC NOAA

KMGE 231756Z 33010G18KT 10SM CLR 21/07 A3005 RMK AO2A SLP173 T02100072 10210 20103 58005 $


Station Type Date Time Source
KMGE Decoded METAR 2021/09/23 17:56 UTC NOAA

Marietta / Dobbins Air Force Base, GA, United States (KMGE) 33-55N 084-31W 326M
Sep 23, 2021 - 01:56 PM EDT / 2021.09.23 1756 UTC
Wind: from the NNW (330 degrees) at 12 MPH (10 KT) gusting to 21 MPH (18 KT):0
Visibility: 10 mile(s):0
Sky conditions: clear
Temperature: 69.8 F (21.0 C)
Dew Point: 45.0 F (7.2 C)
Relative Humidity: 40%
Pressure (altimeter): 30.05 in. Hg (1017 hPa)
Pressure tendency: 0.01 inches (0.5 hPa) lower than three hours ago
ob: KMGE 231756Z 33010G18KT 10SM CLR 21/07 A3005 RMK AO2A SLP173 T02100072 10210 20103 58005
cycle: 18

Station Type Date Time Source
KMGE TAF 2021/09/23 13:10 UTC NOAA

TAF KMGE 231300Z 2313/2419 29010G15KT 9999 SKC QNH2999INS
BECMG 2314/2315 31012G18KT 9999 SKC QNH2999INS
TEMPO 2315/2321 33015G25KT
BECMG 2320/2321 34015G25KT 9999 SKC QNH3000INS
BECMG 2400/2401 35007KT 9999 SKC QNH3001INS
BECMG 2415/2416 04007KT 9999 SKC QNH3010INS TX23/2321Z TN11/2412Z

Example: see airport list